sensor_id;sensor_type;location;lat;lon;timestamp;pressure;altitude;pressure_sealevel;temperature;humidity
74045;BME280;62389;51.412;5.436;2023-02-01T00:01:45;101996.41;;;4.32;86.25
74045;BME280;62389;51.412;5.436;2023-02-01T00:04:10;101986.91;;;4.28;85.80
74045;BME280;62389;51.412;5.436;2023-02-01T00:06:36;101983.44;;;4.26;85.89
74045;BME280;62389;51.412;5.436;2023-02-01T00:09:01;101972.22;;;4.24;85.62
74045;BME280;62389;51.412;5.436;2023-02-01T00:11:27;101979.97;;;4.21;85.58
74045;BME280;62389;51.412;5.436;2023-02-01T00:13:52;101974.81;;;4.21;85.59
74045;BME280;62389;51.412;5.436;2023-02-01T00:16:20;101971.34;;;4.15;85.89
74045;BME280;62389;51.412;5.436;2023-02-01T00:18:48;101977.38;;;4.16;85.46
74045;BME280;62389;51.412;5.436;2023-02-01T00:21:15;101975.66;;;4.15;86.03
74045;BME280;62389;51.412;5.436;2023-02-01T00:23:41;101962.72;;;4.07;84.55
74045;BME280;62389;51.412;5.436;2023-02-01T00:26:12;101950.63;;;4.06;86.10
74045;BME280;62389;51.412;5.436;2023-02-01T00:28:38;101941.13;;;4.05;83.83
74045;BME280;62389;51.412;5.436;2023-02-01T00:31:04;101942.84;;;4.06;84.80
74045;BME280;62389;51.412;5.436;2023-02-01T00:33:30;101947.19;;;4.10;84.32
74045;BME280;62389;51.412;5.436;2023-02-01T00:36:00;101942.84;;;4.06;84.51
74045;BME280;62389;51.412;5.436;2023-02-01T00:38:27;101950.63;;;4.03;84.21
74045;BME280;62389;51.412;5.436;2023-02-01T00:40:54;101949.78;;;4.03;83.92
74045;BME280;62389;51.412;5.436;2023-02-01T00:43:19;101941.97;;;4.01;84.65
74045;BME280;62389;51.412;5.436;2023-02-01T00:45:45;101935.09;;;4.03;84.21
74045;BME280;62389;51.412;5.436;2023-02-01T00:48:11;101935.97;;;4.02;84.54
74045;BME280;62389;51.412;5.436;2023-02-01T00:50:41;101929.94;;;4.02;84.27
74045;BME280;62389;51.412;5.436;2023-02-01T00:53:08;101939.41;;;4.00;83.90
74045;BME280;62389;51.412;5.436;2023-02-01T00:55:34;101942.00;;;3.97;83.59
74045;BME280;62389;51.412;5.436;2023-02-01T00:57:59;101948.88;;;3.96;84.15
74045;BME280;62389;51.412;5.436;2023-02-01T01:00:25;101945.44;;;3.94;84.13
74045;BME280;62389;51.412;5.436;2023-02-01T01:02:50;101951.47;;;3.90;83.39
74045;BME280;62389;51.412;5.436;2023-02-01T01:05:15;101953.19;;;3.86;83.71
74045;BME280;62389;51.412;5.436;2023-02-01T01:07:41;101954.91;;;3.86;83.89
74045;BME280;62389;51.412;5.436;2023-02-01T01:10:07;101951.44;;;3.81;84.90
74045;BME280;62389;51.412;5.436;2023-02-01T01:12:32;101958.38;;;3.77;84.20
74045;BME280;62389;51.412;5.436;2023-02-01T01:14:58;101962.66;;;3.74;84.89
74045;BME280;62389;51.412;5.436;2023-02-01T01:17:23;101960.06;;;3.75;85.18
74045;BME280;62389;51.412;5.436;2023-02-01T01:19:48;101964.38;;;3.72;84.24
74045;BME280;62389;51.412;5.436;2023-02-01T01:22:14;101967.81;;;3.71;84.22
74045;BME280;62389;51.412;5.436;2023-02-01T01:24:39;101971.28;;;3.67;84.42
74045;BME280;62389;51.412;5.436;2023-02-01T01:27:04;101956.63;;;3.67;85.72
74045;BME280;62389;51.412;5.436;2023-02-01T01:29:30;101952.31;;;3.68;84.94
74045;BME280;62389;51.412;5.436;2023-02-01T01:31:55;101957.47;;;3.68;84.63
74045;BME280;62389;51.412;5.436;2023-02-01T01:34:20;101949.72;;;3.69;85.09
74045;BME280;62389;51.412;5.436;2023-02-01T01:36:46;101954.88;;;3.71;85.42
74045;BME280;62389;51.412;5.436;2023-02-01T01:39:11;101965.22;;;3.69;85.26
74045;BME280;62389;51.412;5.436;2023-02-01T01:41:37;101960.91;;;3.68;85.06
74045;BME280;62389;51.412;5.436;2023-02-01T01:44:04;101948.81;;;3.66;85.44
74045;BME280;62389;51.412;5.436;2023-02-01T01:46:34;101962.63;;;3.58;85.59
74045;BME280;62389;51.412;5.436;2023-02-01T01:49:19;101957.44;;;3.57;86.85
74045;BME280;62389;51.412;5.436;2023-02-01T01:52:00;101964.34;;;3.59;86.59
74045;BME280;62389;51.412;5.436;2023-02-01T01:54:38;101966.03;;;3.54;86.44
74045;BME280;62389;51.412;5.436;2023-02-01T01:57:14;101967.78;;;3.52;86.29
74045;BME280;62389;51.412;5.436;2023-02-01T01:59:46;101969.47;;;3.50;87.19
74045;BME280;62389;51.412;5.436;2023-02-01T02:02:13;101970.34;;;3.49;87.64
74045;BME280;62389;51.412;5.436;2023-02-01T02:04:39;101972.06;;;3.47;86.94
74045;BME280;62389;51.412;5.436;2023-02-01T02:07:11;101972.91;;;3.46;87.09
74045;BME280;62389;51.412;5.436;2023-02-01T02:09:39;101971.19;;;3.44;87.64
74045;BME280;62389;51.412;5.436;2023-02-01T02:12:05;101969.47;;;3.44;87.99
74045;BME280;62389;51.412;5.436;2023-02-01T02:14:31;101966.88;;;3.44;88.18
74045;BME280;62389;51.412;5.436;2023-02-01T02:17:16;101948.78;;;3.43;88.20
74045;BME280;62389;51.412;5.436;2023-02-01T02:25:46;101945.31;;;3.42;88.32
74045;BME280;62389;51.412;5.436;2023-02-01T02:34:21;101931.53;;;3.45;88.23
74045;BME280;62389;51.412;5.436;2023-02-01T02:46:09;101913.47;;;3.63;88.20
74045;BME280;62389;51.412;5.436;2023-02-01T02:54:31;101916.94;;;3.68;88.48
74045;BME280;62389;51.412;5.436;2023-02-01T02:57:35;101916.94;;;3.68;87.70
74045;BME280;62389;51.412;5.436;2023-02-01T03:00:24;101915.22;;;3.67;88.40
74045;BME280;62389;51.412;5.436;2023-02-01T03:03:10;101918.66;;;3.68;87.97
74045;BME280;62389;51.412;5.436;2023-02-01T03:05:54;101900.53;;;3.69;88.33
74045;BME280;62389;51.412;5.436;2023-02-01T03:08:27;101906.56;;;3.70;88.35
74045;BME280;62389;51.412;5.436;2023-02-01T03:11:02;101908.31;;;3.72;87.98
74045;BME280;62389;51.412;5.436;2023-02-01T03:13:52;101904.00;;;3.73;88.23
74045;BME280;62389;51.412;5.436;2023-02-01T03:16:42;101898.84;;;3.73;87.84
74045;BME280;62389;51.412;5.436;2023-02-01T03:22:00;101897.09;;;3.75;87.54
74045;BME280;62389;51.412;5.436;2023-02-01T03:24:44;101897.97;;;3.72;87.43
74045;BME280;62389;51.412;5.436;2023-02-01T03:27:16;101897.13;;;3.72;87.77
74045;BME280;62389;51.412;5.436;2023-02-01T03:29:56;101910.03;;;3.70;87.14
74045;BME280;62389;51.412;5.436;2023-02-01T03:32:24;101903.13;;;3.68;87.33
74045;BME280;62389;51.412;5.436;2023-02-01T03:34:50;101903.13;;;3.68;87.64
74045;BME280;62389;51.412;5.436;2023-02-01T03:37:23;101904.84;;;3.66;87.73
74045;BME280;62389;51.412;5.436;2023-02-01T03:39:57;101900.53;;;3.66;87.97
74045;BME280;62389;51.412;5.436;2023-02-01T03:42:48;101897.06;;;3.66;88.28
74045;BME280;62389;51.412;5.436;2023-02-01T03:46:11;101898.81;;;3.68;88.30
74045;BME280;62389;51.412;5.436;2023-02-01T03:48:28;101904.00;;;3.70;88.20
74045;BME280;62389;51.412;5.436;2023-02-01T03:50:58;101896.22;;;3.71;88.01
74045;BME280;62389;51.412;5.436;2023-02-01T03:53:26;101897.97;;;3.68;87.85
74045;BME280;62389;51.412;5.436;2023-02-01T03:55:53;101905.72;;;3.71;87.71
74045;BME280;62389;51.412;5.436;2023-02-01T03:58:20;101904.00;;;3.67;88.09
74045;BME280;62389;51.412;5.436;2023-02-01T04:00:58;101898.81;;;3.63;87.81
74045;BME280;62389;51.412;5.436;2023-02-01T04:03:25;101901.41;;;3.62;88.40
74045;BME280;62389;51.412;5.436;2023-02-01T04:05:51;101902.25;;;3.59;88.73
74045;BME280;62389;51.412;5.436;2023-02-01T04:08:18;101892.75;;;3.58;88.30
74045;BME280;62389;51.412;5.436;2023-02-01T04:10:44;101897.09;;;3.58;88.20
74045;BME280;62389;51.412;5.436;2023-02-01T04:13:09;101896.22;;;3.57;88.30
74045;BME280;62389;51.412;5.436;2023-02-01T04:15:35;101891.91;;;3.59;88.34
74045;BME280;62389;51.412;5.436;2023-02-01T04:18:00;101893.63;;;3.60;88.27
74045;BME280;62389;51.412;5.436;2023-02-01T04:20:26;101881.56;;;3.59;88.28
74045;BME280;62389;51.412;5.436;2023-02-01T04:22:52;101876.38;;;3.61;88.71
74045;BME280;62389;51.412;5.436;2023-02-01T04:25:17;101871.22;;;3.67;88.22
74045;BME280;62389;51.412;5.436;2023-02-01T04:27:43;101866.91;;;3.66;88.15
74045;BME280;62389;51.412;5.436;2023-02-01T04:30:09;101876.38;;;3.64;88.53
74045;BME280;62389;51.412;5.436;2023-02-01T04:32:37;101878.13;;;3.63;88.43
74045;BME280;62389;51.412;5.436;2023-02-01T04:35:03;101883.28;;;3.63;88.64
74045;BME280;62389;51.412;5.436;2023-02-01T04:37:28;101888.44;;;3.60;88.11
74045;BME280;62389;51.412;5.436;2023-02-01T04:39:54;101888.44;;;3.59;88.98
74045;BME280;62389;51.412;5.436;2023-02-01T04:42:20;101883.28;;;3.57;88.18
74045;BME280;62389;51.412;5.436;2023-02-01T04:44:45;101882.41;;;3.52;88.75
74045;BME280;62389;51.412;5.436;2023-02-01T04:47:11;101888.44;;;3.50;89.20
74045;BME280;62389;51.412;5.436;2023-02-01T04:49:36;101880.69;;;3.47;88.72
74045;BME280;62389;51.412;5.436;2023-02-01T04:52:01;101886.72;;;3.47;88.84
74045;BME280;62389;51.412;5.436;2023-02-01T04:54:27;101891.88;;;3.44;88.63
74045;BME280;62389;51.412;5.436;2023-02-01T04:56:52;101890.16;;;3.42;88.81
74045;BME280;62389;51.412;5.436;2023-02-01T04:59:18;101899.63;;;3.38;89.05
74045;BME280;62389;51.412;5.436;2023-02-01T05:01:43;101898.78;;;3.42;88.33
74045;BME280;62389;51.412;5.436;2023-02-01T05:04:08;101893.56;;;3.36;88.69
74045;BME280;62389;51.412;5.436;2023-02-01T05:06:34;101904.78;;;3.36;89.20
74045;BME280;62389;51.412;5.436;2023-02-01T05:08:59;101911.66;;;3.33;88.96
74045;BME280;62389;51.412;5.436;2023-02-01T05:11:24;101909.09;;;3.33;89.31
74045;BME280;62389;51.412;5.436;2023-02-01T05:14:08;101913.38;;;3.31;89.15
74045;BME280;62389;51.412;5.436;2023-02-01T05:16:34;101909.91;;;3.30;88.98
74045;BME280;62389;51.412;5.436;2023-02-01T05:19:00;101904.75;;;3.29;89.45
74045;BME280;62389;51.412;5.436;2023-02-01T05:21:25;101897.88;;;3.26;89.47
74045;BME280;62389;51.412;5.436;2023-02-01T05:23:50;101897.88;;;3.26;89.43
74045;BME280;62389;51.412;5.436;2023-02-01T05:26:34;101908.19;;;3.25;89.84
74045;BME280;62389;51.412;5.436;2023-02-01T05:29:00;101898.72;;;3.28;89.17
74045;BME280;62389;51.412;5.436;2023-02-01T05:31:25;101893.56;;;3.27;89.34
74045;BME280;62389;51.412;5.436;2023-02-01T05:33:51;101882.34;;;3.28;89.50
74045;BME280;62389;51.412;5.436;2023-02-01T05:36:16;101889.25;;;3.29;89.46
74045;BME280;62389;51.412;5.436;2023-02-01T05:38:42;101878.06;;;3.33;90.05
74045;BME280;62389;51.412;5.436;2023-02-01T05:41:07;101874.63;;;3.37;89.59
74045;BME280;62389;51.412;5.436;2023-02-01T05:43:32;101878.09;;;3.42;89.67
74045;BME280;62389;51.412;5.436;2023-02-01T05:45:58;101887.56;;;3.46;89.32
74045;BME280;62389;51.412;5.436;2023-02-01T05:48:23;101883.25;;;3.51;89.36
74045;BME280;62389;51.412;5.436;2023-02-01T05:50:49;101887.56;;;3.55;89.48
74045;BME280;62389;51.412;5.436;2023-02-01T05:53:14;101897.06;;;3.59;88.80
74045;BME280;62389;51.412;5.436;2023-02-01T05:55:39;101900.56;;;3.68;89.07
74045;BME280;62389;51.412;5.436;2023-02-01T05:58:06;101897.94;;;3.71;88.49
74045;BME280;62389;51.412;5.436;2023-02-01T06:00:31;101895.38;;;3.71;88.42
74045;BME280;62389;51.412;5.436;2023-02-01T06:02:57;101898.81;;;3.70;89.20
74045;BME280;62389;51.412;5.436;2023-02-01T06:05:22;101899.69;;;3.70;89.51
74045;BME280;62389;51.412;5.436;2023-02-01T06:07:48;101901.41;;;3.74;88.95
74045;BME280;62389;51.412;5.436;2023-02-01T06:10:18;101904.88;;;3.73;88.29
74045;BME280;62389;51.412;5.436;2023-02-01T06:12:44;101900.56;;;3.74;88.93
74045;BME280;62389;51.412;5.436;2023-02-01T06:15:11;101891.94;;;3.73;88.45
74045;BME280;62389;51.412;5.436;2023-02-01T06:17:37;101894.53;;;3.72;88.90
74045;BME280;62389;51.412;5.436;2023-02-01T06:20:04;101887.59;;;3.75;89.07
74045;BME280;62389;51.412;5.436;2023-02-01T06:22:31;101891.06;;;3.73;89.36
74045;BME280;62389;51.412;5.436;2023-02-01T06:24:57;101903.16;;;3.72;88.69
74045;BME280;62389;51.412;5.436;2023-02-01T06:27:24;101903.16;;;3.80;88.75
74045;BME280;62389;51.412;5.436;2023-02-01T06:29:49;101913.47;;;3.75;89.14
74045;BME280;62389;51.412;5.436;2023-02-01T06:32:14;101905.72;;;3.80;88.43
74045;BME280;62389;51.412;5.436;2023-02-01T06:34:40;101910.91;;;3.77;89.34
74045;BME280;62389;51.412;5.436;2023-02-01T06:37:05;101911.75;;;3.74;88.64
74045;BME280;62389;51.412;5.436;2023-02-01T06:39:31;101907.47;;;3.72;88.87
74045;BME280;62389;51.412;5.436;2023-02-01T06:41:56;101909.16;;;3.70;89.27
74045;BME280;62389;51.412;5.436;2023-02-01T06:44:21;101915.19;;;3.66;88.94
74045;BME280;62389;51.412;5.436;2023-02-01T06:46:47;101923.81;;;3.66;89.78
74045;BME280;62389;51.412;5.436;2023-02-01T06:49:12;101919.50;;;3.63;89.09
74045;BME280;62389;51.412;5.436;2023-02-01T06:51:38;101920.38;;;3.67;89.40
74045;BME280;62389;51.412;5.436;2023-02-01T06:54:03;101920.38;;;3.67;89.64
74045;BME280;62389;51.412;5.436;2023-02-01T06:56:28;101917.78;;;3.69;89.51
74045;BME280;62389;51.412;5.436;2023-02-01T06:58:56;101916.06;;;3.71;89.14
74045;BME280;62389;51.412;5.436;2023-02-01T07:01:21;101916.94;;;3.73;88.96
74045;BME280;62389;51.412;5.436;2023-02-01T07:03:48;101922.09;;;3.70;89.62
74045;BME280;62389;51.412;5.436;2023-02-01T07:06:14;101921.25;;;3.71;90.20
74045;BME280;62389;51.412;5.436;2023-02-01T07:08:39;101925.56;;;3.73;89.93
74045;BME280;62389;51.412;5.436;2023-02-01T07:11:10;101924.69;;;3.70;89.98
74045;BME280;62389;51.412;5.436;2023-02-01T07:13:36;101919.50;;;3.70;89.18
74045;BME280;62389;51.412;5.436;2023-02-01T07:16:03;101915.22;;;3.69;90.18
74045;BME280;62389;51.412;5.436;2023-02-01T07:18:30;101932.47;;;3.73;89.81
74045;BME280;62389;51.412;5.436;2023-02-01T07:20:55;101917.78;;;3.69;89.67
74045;BME280;62389;51.412;5.436;2023-02-01T07:23:21;101913.47;;;3.69;89.42
74045;BME280;62389;51.412;5.436;2023-02-01T07:25:47;101916.91;;;3.71;89.08
74045;BME280;62389;51.412;5.436;2023-02-01T07:28:12;101916.06;;;3.71;89.53
74045;BME280;62389;51.412;5.436;2023-02-01T07:30:38;101915.22;;;3.72;89.12
74045;BME280;62389;51.412;5.436;2023-02-01T07:33:03;101914.34;;;3.73;89.70
74045;BME280;62389;51.412;5.436;2023-02-01T07:35:29;101921.25;;;3.69;88.84
74045;BME280;62389;51.412;5.436;2023-02-01T07:37:54;101924.69;;;3.70;89.68
74045;BME280;62389;51.412;5.436;2023-02-01T07:40:19;101925.53;;;3.66;89.25
74045;BME280;62389;51.412;5.436;2023-02-01T07:42:50;101929.00;;;3.64;89.64
74045;BME280;62389;51.412;5.436;2023-02-01T07:45:15;101929.00;;;3.63;89.22
74045;BME280;62389;51.412;5.436;2023-02-01T07:47:41;101936.75;;;3.64;89.44
74045;BME280;62389;51.412;5.436;2023-02-01T07:50:06;101940.22;;;3.63;89.60
74045;BME280;62389;51.412;5.436;2023-02-01T07:52:32;101935.91;;;3.64;90.28
74045;BME280;62389;51.412;5.436;2023-02-01T07:54:57;101935.06;;;3.67;89.60
74045;BME280;62389;51.412;5.436;2023-02-01T07:57:23;101934.19;;;3.69;89.25
74045;BME280;62389;51.412;5.436;2023-02-01T07:59:48;101929.88;;;3.70;89.04
74045;BME280;62389;51.412;5.436;2023-02-01T08:02:32;101939.34;;;3.71;89.41
74045;BME280;62389;51.412;5.436;2023-02-01T08:04:57;101931.63;;;3.72;88.76
74045;BME280;62389;51.412;5.436;2023-02-01T08:07:22;101932.47;;;3.76;88.89
74045;BME280;62389;51.412;5.436;2023-02-01T08:09:48;101939.38;;;3.84;89.27
74045;BME280;62389;51.412;5.436;2023-02-01T08:12:13;101946.28;;;3.90;88.44
74045;BME280;62389;51.412;5.436;2023-02-01T08:14:38;101954.94;;;3.92;88.77
74045;BME280;62389;51.412;5.436;2023-02-01T08:17:06;101950.63;;;3.94;87.99
74045;BME280;62389;51.412;5.436;2023-02-01T08:19:31;101959.25;;;3.99;89.02
74045;BME280;62389;51.412;5.436;2023-02-01T08:21:56;101956.69;;;4.04;88.38
74045;BME280;62389;51.412;5.436;2023-02-01T08:24:22;101962.72;;;4.07;87.73
74045;BME280;62389;51.412;5.436;2023-02-01T08:26:47;101954.06;;;4.11;87.58
74045;BME280;62389;51.412;5.436;2023-02-01T08:29:12;101958.41;;;4.14;87.51
74045;BME280;62389;51.412;5.436;2023-02-01T08:31:39;101948.91;;;4.14;87.62
74045;BME280;62389;51.412;5.436;2023-02-01T08:34:09;101959.28;;;4.22;87.28
74045;BME280;62389;51.412;5.436;2023-02-01T08:36:34;101957.56;;;4.23;87.81
74045;BME280;62389;51.412;5.436;2023-02-01T08:39:00;101963.59;;;4.31;87.21
74045;BME280;62389;51.412;5.436;2023-02-01T08:41:29;101962.75;;;4.38;87.03
74045;BME280;62389;51.412;5.436;2023-02-01T08:43:56;101961.00;;;4.49;87.00
74045;BME280;62389;51.412;5.436;2023-02-01T08:46:22;101967.03;;;4.60;86.96
74045;BME280;62389;51.412;5.436;2023-02-01T08:48:48;101963.56;;;4.71;85.71
74045;BME280;62389;51.412;5.436;2023-02-01T08:51:16;101960.97;;;4.71;85.95
74045;BME280;62389;51.412;5.436;2023-02-01T08:53:41;101957.50;;;4.72;85.59
74045;BME280;62389;51.412;5.436;2023-02-01T08:56:08;101957.53;;;4.73;86.01
74045;BME280;62389;51.412;5.436;2023-02-01T08:58:34;101956.66;;;4.73;85.76
74045;BME280;62389;51.412;5.436;2023-02-01T09:01:08;101951.44;;;4.86;85.99
74045;BME280;62389;51.412;5.436;2023-02-01T09:03:34;101944.53;;;4.93;85.55
74045;BME280;62389;51.412;5.436;2023-02-01T09:06:01;101949.69;;;4.94;85.23
74045;BME280;62389;51.412;5.436;2023-02-01T09:08:27;101935.00;;;4.95;85.56
74045;BME280;62389;51.412;5.436;2023-02-01T09:10:52;101941.03;;;4.99;85.04
74045;BME280;62389;51.412;5.436;2023-02-01T09:13:18;101928.91;;;5.07;85.22
74045;BME280;62389;51.412;5.436;2023-02-01T09:15:43;101920.28;;;5.08;84.56
74045;BME280;62389;51.412;5.436;2023-02-01T09:18:09;101916.81;;;5.09;84.72
74045;BME280;62389;51.412;5.436;2023-02-01T09:20:34;101917.63;;;5.15;84.88
74045;BME280;62389;51.412;5.436;2023-02-01T09:22:59;101917.59;;;5.28;85.09
74045;BME280;62389;51.412;5.436;2023-02-01T09:25:25;101915.78;;;5.40;84.27
74045;BME280;62389;51.412;5.436;2023-02-01T09:27:51;101917.44;;;5.55;83.41
74045;BME280;62389;51.412;5.436;2023-02-01T09:30:16;101911.31;;;5.70;83.59
74045;BME280;62389;51.412;5.436;2023-02-01T09:32:42;101911.28;;;5.75;83.03
74045;BME280;62389;51.412;5.436;2023-02-01T09:35:07;101913.81;;;5.84;82.16
74045;BME280;62389;51.412;5.436;2023-02-01T09:37:33;101905.16;;;5.85;82.00
74045;BME280;62389;51.412;5.436;2023-02-01T09:39:58;101907.72;;;5.88;81.97
74045;BME280;62389;51.412;5.436;2023-02-01T09:45:40;101914.47;;;6.15;81.95
74045;BME280;62389;51.412;5.436;2023-02-01T09:48:18;101916.16;;;6.20;81.13
74045;BME280;62389;51.412;5.436;2023-02-01T09:50:52;101920.47;;;6.21;81.04
74045;BME280;62389;51.412;5.436;2023-02-01T09:56:02;101920.47;;;6.25;80.20
74045;BME280;62389;51.412;5.436;2023-02-01T10:00:57;101916.16;;;6.20;79.45
74045;BME280;62389;51.412;5.436;2023-02-01T10:03:32;101919.63;;;6.19;79.55
74045;BME280;62389;51.412;5.436;2023-02-01T10:06:19;101906.59;;;6.26;79.23
74045;BME280;62389;51.412;5.436;2023-02-01T10:09:02;101896.13;;;6.35;79.64
74045;BME280;62389;51.412;5.436;2023-02-01T10:16:58;101914.84;;;6.67;77.79
74045;BME280;62389;51.412;5.436;2023-02-01T10:22:08;101915.44;;;6.94;77.70
74045;BME280;62389;51.412;5.436;2023-02-01T10:24:46;101917.84;;;7.11;76.54
74045;BME280;62389;51.412;5.436;2023-02-01T10:27:25;101929.78;;;7.25;75.28
74045;BME280;62389;51.412;5.436;2023-02-01T10:29:58;101936.53;;;7.43;75.43
74045;BME280;62389;51.412;5.436;2023-02-01T10:32:30;101945.09;;;7.50;73.38
74045;BME280;62389;51.412;5.436;2023-02-01T10:35:02;101963.56;;;7.30;73.26
74045;BME280;62389;51.412;5.436;2023-02-01T10:37:34;101937.53;;;7.33;73.96
74045;BME280;62389;51.412;5.436;2023-02-01T10:40:09;101954.84;;;7.33;73.82
74045;BME280;62389;51.412;5.436;2023-02-01T10:42:39;101941.84;;;7.33;74.46
74045;BME280;62389;51.412;5.436;2023-02-01T10:45:05;101946.19;;;7.34;73.40
74045;BME280;62389;51.412;5.436;2023-02-01T10:47:31;101948.91;;;7.21;73.13
74045;BME280;62389;51.412;5.436;2023-02-01T10:50:04;101951.59;;;7.15;73.62
74045;BME280;62389;51.412;5.436;2023-02-01T10:58:31;101932.59;;;7.09;73.37
74045;BME280;62389;51.412;5.436;2023-02-01T11:01:04;101923.78;;;7.20;73.59
74045;BME280;62389;51.412;5.436;2023-02-01T11:03:57;101917.59;;;7.31;75.20
74045;BME280;62389;51.412;5.436;2023-02-01T11:06:37;101921.75;;;7.44;73.19
74045;BME280;62389;51.412;5.436;2023-02-01T11:16:55;101902.06;;;7.24;73.34
74045;BME280;62389;51.412;5.436;2023-02-01T11:19:21;101902.09;;;7.21;73.00
74045;BME280;62389;51.412;5.436;2023-02-01T11:21:51;101895.25;;;7.13;72.99
74045;BME280;62389;51.412;5.436;2023-02-01T11:24:23;101893.56;;;7.10;72.34
74045;BME280;62389;51.412;5.436;2023-02-01T11:26:50;101872.84;;;7.04;73.09
74045;BME280;62389;51.412;5.436;2023-02-01T11:29:19;101883.25;;;7.01;73.04
74045;BME280;62389;51.412;5.436;2023-02-01T11:31:50;101878.97;;;6.98;73.12
74045;BME280;62389;51.412;5.436;2023-02-01T11:34:17;101881.56;;;6.97;72.84
74045;BME280;62389;51.412;5.436;2023-02-01T11:36:46;101877.25;;;6.96;73.05
74045;BME280;62389;51.412;5.436;2023-02-01T11:42:13;101871.16;;;6.97;72.48
74045;BME280;62389;51.412;5.436;2023-02-01T11:44:41;101870.25;;;7.01;72.21
74045;BME280;62389;51.412;5.436;2023-02-01T11:49:51;101875.41;;;7.06;70.80
74045;BME280;62389;51.412;5.436;2023-02-01T12:00:57;101859.75;;;7.07;72.27
74045;BME280;62389;51.412;5.436;2023-02-01T12:09:08;101852.81;;;7.08;71.90
74045;BME280;62389;51.412;5.436;2023-02-01T12:14:50;101867.53;;;7.10;72.73
74045;BME280;62389;51.412;5.436;2023-02-01T12:17:46;101871.91;;;7.07;73.10
74045;BME280;62389;51.412;5.436;2023-02-01T12:28:51;101862.44;;;7.04;72.40
74045;BME280;62389;51.412;5.436;2023-02-01T12:31:45;101849.47;;;6.99;73.19
74045;BME280;62389;51.412;5.436;2023-02-01T12:34:18;101857.31;;;6.98;73.26
74045;BME280;62389;51.412;5.436;2023-02-01T12:37:17;101854.69;;;6.99;72.91
74045;BME280;62389;51.412;5.436;2023-02-01T12:40:06;101838.97;;;7.06;72.64
74045;BME280;62389;51.412;5.436;2023-02-01T12:42:43;101857.16;;;7.07;73.38
74045;BME280;62389;51.412;5.436;2023-02-01T12:45:13;101858.91;;;7.08;73.17
74045;BME280;62389;51.412;5.436;2023-02-01T12:47:51;101862.38;;;7.07;73.09
74045;BME280;62389;51.412;5.436;2023-02-01T12:50:35;101855.41;;;7.09;72.75
74045;BME280;62389;51.412;5.436;2023-02-01T12:55:48;101844.94;;;7.12;73.11
74045;BME280;62389;51.412;5.436;2023-02-01T12:58:26;101851.84;;;7.16;73.22
74045;BME280;62389;51.412;5.436;2023-02-01T13:00:59;101839.69;;;7.18;72.59
74045;BME280;62389;51.412;5.436;2023-02-01T13:03:42;101839.66;;;7.20;73.49
74045;BME280;62389;51.412;5.436;2023-02-01T13:06:16;101846.56;;;7.24;73.45
74045;BME280;62389;51.412;5.436;2023-02-01T13:08:50;101850.88;;;7.25;72.38
74045;BME280;62389;51.412;5.436;2023-02-01T13:11:24;101846.53;;;7.25;73.02
74045;BME280;62389;51.412;5.436;2023-02-01T13:14:05;101851.75;;;7.24;72.90
74045;BME280;62389;51.412;5.436;2023-02-01T13:16:40;101830.94;;;7.24;73.11
74045;BME280;62389;51.412;5.436;2023-02-01T13:21:51;101826.59;;;7.24;73.38
74045;BME280;62389;51.412;5.436;2023-02-01T13:24:32;101824.78;;;7.30;73.77
74045;BME280;62389;51.412;5.436;2023-02-01T13:27:00;101829.97;;;7.31;73.24
74045;BME280;62389;51.412;5.436;2023-02-01T13:29:28;101829.84;;;7.39;73.07
74045;BME280;62389;51.412;5.436;2023-02-01T13:37:23;101825.16;;;7.62;72.62
74045;BME280;62389;51.412;5.436;2023-02-01T13:40:26;101829.38;;;7.68;72.75
74045;BME280;62389;51.412;5.436;2023-02-01T13:43:00;101836.34;;;7.69;72.58
74045;BME280;62389;51.412;5.436;2023-02-01T13:45:30;101840.59;;;7.73;72.00
74045;BME280;62389;51.412;5.436;2023-02-01T13:48:03;101830.97;;;7.78;73.07
74045;BME280;62389;51.412;5.436;2023-02-01T13:53:00;101837.91;;;7.79;72.41
74045;BME280;62389;51.412;5.436;2023-02-01T13:55:36;101830.25;;;7.70;72.12
74045;BME280;62389;51.412;5.436;2023-02-01T14:03:42;101840.13;;;7.48;72.98
74045;BME280;62389;51.412;5.436;2023-02-01T14:05:57;101839.25;;;7.49;72.76
74045;BME280;62389;51.412;5.436;2023-02-01T14:08:38;101847.09;;;7.46;72.87
74045;BME280;62389;51.412;5.436;2023-02-01T14:11:04;101848.06;;;7.40;72.71
74045;BME280;62389;51.412;5.436;2023-02-01T14:13:41;101848.09;;;7.36;72.79
74045;BME280;62389;51.412;5.436;2023-02-01T14:21:45;101860.28;;;7.32;73.83
74045;BME280;62389;51.412;5.436;2023-02-01T14:24:31;101859.50;;;7.27;73.64
74045;BME280;62389;51.412;5.436;2023-02-01T14:27:00;101864.78;;;7.24;74.23
74045;BME280;62389;51.412;5.436;2023-02-01T14:32:30;101862.13;;;7.25;74.51
74045;BME280;62389;51.412;5.436;2023-02-01T14:35:00;101859.53;;;7.25;74.16
74045;BME280;62389;51.412;5.436;2023-02-01T14:37:30;101853.44;;;7.26;74.61
74045;BME280;62389;51.412;5.436;2023-02-01T14:40:01;101853.50;;;7.23;74.44
74045;BME280;62389;51.412;5.436;2023-02-01T14:53:17;101850.16;;;7.14;75.11
74045;BME280;62389;51.412;5.436;2023-02-01T15:01:28;101862.31;;;7.13;75.06
74045;BME280;62389;51.412;5.436;2023-02-01T15:03:59;101872.75;;;7.10;75.36
74045;BME280;62389;51.412;5.436;2023-02-01T15:06:30;101872.78;;;7.07;75.36
74045;BME280;62389;51.412;5.436;2023-02-01T15:09:02;101873.66;;;7.06;75.60
74045;BME280;62389;51.412;5.436;2023-02-01T15:11:28;101872.78;;;7.07;75.66
74045;BME280;62389;51.412;5.436;2023-02-01T15:13:54;101871.06;;;7.06;76.14
74045;BME280;62389;51.412;5.436;2023-02-01T15:16:20;101866.75;;;7.05;75.63
74045;BME280;62389;51.412;5.436;2023-02-01T15:18:48;101878.00;;;7.06;75.59
74045;BME280;62389;51.412;5.436;2023-02-01T15:21:23;101875.41;;;7.06;75.33
74045;BME280;62389;51.412;5.436;2023-02-01T15:23:50;101880.59;;;7.06;75.89
74045;BME280;62389;51.412;5.436;2023-02-01T15:26:30;101874.53;;;7.05;75.79
74045;BME280;62389;51.412;5.436;2023-02-01T15:28:59;101878.03;;;7.04;76.39